createdAt,value
2018-04-19T00:00:58.362Z,18.27
2018-04-19T00:01:58.372Z,18.20
2018-04-19T00:02:58.380Z,18.27
2018-04-19T00:03:58.386Z,18.20
2018-04-19T00:04:58.429Z,18.15
2018-04-19T00:05:58.401Z,18.17
2018-04-19T00:06:58.450Z,18.14
2018-04-19T00:07:58.568Z,18.08
2018-04-19T00:08:58.386Z,18.12
2018-04-19T00:09:58.352Z,18.14
2018-04-19T00:10:58.357Z,18.15
2018-04-19T00:11:58.461Z,18.20
2018-04-19T00:12:58.391Z,18.11
2018-04-19T00:13:58.372Z,18.10
2018-04-19T00:14:58.388Z,18.00
2018-04-19T00:15:58.413Z,17.99
2018-04-19T00:16:58.470Z,17.93
2018-04-19T00:17:58.398Z,17.97
2018-04-19T00:18:58.403Z,18.00
2018-04-19T00:19:58.395Z,17.96
2018-04-19T00:20:58.449Z,17.90
2018-04-19T00:21:58.407Z,17.99
2018-04-19T00:22:58.400Z,17.95
2018-04-19T00:23:58.398Z,17.97
2018-04-19T00:24:58.394Z,17.95
2018-04-19T00:25:58.425Z,17.96
2018-04-19T00:26:58.414Z,17.89
2018-04-19T00:27:58.443Z,17.92
2018-04-19T00:28:58.436Z,17.87
2018-04-19T00:29:58.419Z,17.93
2018-04-19T00:30:58.467Z,17.92
2018-04-19T00:31:58.451Z,17.84
2018-04-19T00:32:58.450Z,17.92
2018-04-19T00:33:58.427Z,17.90
2018-04-19T00:34:58.425Z,17.87
2018-04-19T00:35:58.582Z,17.86
2018-04-19T00:36:58.427Z,17.96
2018-04-19T00:37:58.471Z,17.95
2018-04-19T00:38:58.440Z,17.92
2018-04-19T00:39:58.493Z,17.90
2018-04-19T00:40:58.469Z,17.96
2018-04-19T00:41:58.495Z,18.00
2018-04-19T00:42:58.510Z,17.97
2018-04-19T00:43:58.466Z,17.99
2018-04-19T00:44:58.503Z,17.93
2018-04-19T00:45:58.475Z,17.93
2018-04-19T00:46:58.522Z,17.89
2018-04-19T00:47:58.476Z,17.89
2018-04-19T00:48:58.572Z,17.96
2018-04-19T00:49:58.496Z,17.95
2018-04-19T00:50:58.505Z,17.92
2018-04-19T00:51:58.542Z,17.82
2018-04-19T00:52:58.549Z,17.81
2018-04-19T00:53:58.500Z,17.75
2018-04-19T00:54:58.519Z,17.77
2018-04-19T00:55:58.515Z,17.78
2018-04-19T00:56:58.555Z,17.74
2018-04-19T00:57:58.530Z,17.75
2018-04-19T00:58:58.549Z,17.72
2018-04-19T00:59:58.590Z,17.66
2018-04-19T01:00:58.606Z,17.72
2018-04-19T01:01:58.557Z,17.74
2018-04-19T01:02:58.553Z,17.72
2018-04-19T01:03:58.568Z,17.66
2018-04-19T01:04:58.585Z,17.63
2018-04-19T01:05:58.607Z,17.51
2018-04-19T01:06:58.615Z,17.64
2018-04-19T01:07:58.570Z,17.58
2018-04-19T01:08:58.589Z,17.66
2018-04-19T01:09:58.560Z,17.68
2018-04-19T01:10:58.609Z,17.62
2018-04-19T01:11:58.706Z,17.58
2018-04-19T01:12:58.596Z,17.68
2018-04-19T01:13:58.579Z,17.66
2018-04-19T01:14:58.627Z,17.51
2018-04-19T01:15:58.598Z,17.51
2018-04-19T01:16:58.591Z,17.52
2018-04-19T01:17:58.659Z,17.58
2018-04-19T01:18:58.650Z,17.55
2018-04-19T01:19:59.305Z,17.46
2018-04-19T01:20:58.603Z,17.48
2018-04-19T01:21:58.629Z,17.44
2018-04-19T01:22:58.635Z,17.46
2018-04-19T01:23:58.619Z,17.38
2018-04-19T01:24:58.661Z,17.44
2018-04-19T01:25:58.677Z,17.37
2018-04-19T01:26:58.730Z,17.36
2018-04-19T01:27:58.705Z,17.44
2018-04-19T01:28:58.659Z,17.33
2018-04-19T01:29:58.648Z,17.34
2018-04-19T01:30:58.668Z,17.33
2018-04-19T01:31:58.705Z,17.44
2018-04-19T01:33:13.452Z,17.22
2018-04-19T01:33:58.751Z,17.40
2018-04-19T01:34:58.712Z,17.23
2018-04-19T01:35:58.692Z,17.21
2018-04-19T01:36:58.702Z,17.19
2018-04-19T01:37:58.728Z,17.16
2018-04-19T01:38:58.725Z,17.22
2018-04-19T01:39:58.715Z,17.14
2018-04-19T01:40:58.705Z,17.15
2018-04-19T01:41:58.716Z,17.14
2018-04-19T01:42:58.801Z,17.14
2018-04-19T01:43:58.708Z,17.07
2018-04-19T01:44:58.740Z,17.12
2018-04-19T01:45:58.746Z,17.01
2018-04-19T01:46:58.675Z,17.12
2018-04-19T01:47:58.733Z,17.06
2018-04-19T01:48:58.708Z,17.14
2018-04-19T01:49:58.711Z,17.00
2018-04-19T01:50:58.739Z,16.98
2018-04-19T01:51:58.706Z,16.94
2018-04-19T01:52:58.696Z,17.00
2018-04-19T01:53:58.726Z,16.96
2018-04-19T01:54:58.713Z,16.89
2018-04-19T01:55:58.746Z,16.86
2018-04-19T01:56:58.739Z,16.88
2018-04-19T01:57:58.740Z,16.91
2018-04-19T01:58:58.816Z,16.76
2018-04-19T01:59:58.740Z,16.88
2018-04-19T02:00:58.776Z,16.86
2018-04-19T02:01:58.744Z,16.73
2018-04-19T02:02:58.761Z,16.79
2018-04-19T02:03:58.796Z,16.81
2018-04-19T02:04:58.783Z,16.67
2018-04-19T02:05:58.764Z,16.71
2018-04-19T02:06:58.842Z,16.76
2018-04-19T02:07:58.802Z,16.81
2018-04-19T02:08:58.844Z,16.76
2018-04-19T02:09:58.785Z,16.81
2018-04-19T02:10:58.791Z,16.61
2018-04-19T02:11:58.829Z,16.75
2018-04-19T02:12:58.803Z,16.79
2018-04-19T02:13:58.778Z,16.70
2018-04-19T02:14:58.805Z,16.73
2018-04-19T02:15:58.838Z,16.75
2018-04-19T02:16:58.863Z,16.75
2018-04-19T02:17:58.858Z,16.73
2018-04-19T02:18:58.858Z,16.67
2018-04-19T02:19:58.815Z,16.67
2018-04-19T02:20:58.888Z,16.67
2018-04-19T02:21:58.845Z,16.63
2018-04-19T02:22:58.827Z,16.66
2018-04-19T02:23:58.847Z,16.71
2018-04-19T02:24:58.845Z,16.64
2018-04-19T02:25:58.853Z,16.70
2018-04-19T02:26:58.857Z,16.70
2018-04-19T02:27:58.844Z,16.58
2018-04-19T02:28:58.866Z,16.66
2018-04-19T02:29:58.891Z,16.61
2018-04-19T02:30:58.903Z,16.53
2018-04-19T02:31:59.009Z,16.56
2018-04-19T02:32:58.912Z,16.52
2018-04-19T02:33:58.970Z,16.52
2018-04-19T02:34:58.912Z,16.53
2018-04-19T02:35:58.924Z,16.57
2018-04-19T02:36:58.962Z,16.61
2018-04-19T02:37:58.963Z,16.57
2018-04-19T02:38:58.919Z,16.57
2018-04-19T02:39:58.923Z,16.58
2018-04-19T02:40:58.952Z,16.53
2018-04-19T02:41:58.916Z,16.52
2018-04-19T02:42:58.951Z,16.57
2018-04-19T02:43:58.943Z,16.57
2018-04-19T02:44:58.930Z,16.53
2018-04-19T02:45:58.972Z,16.52
2018-04-19T02:46:58.916Z,16.53
2018-04-19T02:47:58.990Z,16.46
2018-04-19T02:48:58.922Z,16.42
2018-04-19T02:49:58.952Z,16.43
2018-04-19T02:50:58.950Z,16.46
2018-04-19T02:51:58.938Z,16.39
2018-04-19T02:52:58.925Z,16.43
2018-04-19T02:53:58.959Z,16.43
2018-04-19T02:54:58.922Z,16.39
2018-04-19T02:55:58.949Z,16.38
2018-04-19T02:56:58.953Z,16.39
2018-04-19T02:57:58.978Z,16.49
2018-04-19T02:58:58.990Z,16.38
2018-04-19T02:59:58.964Z,16.43
2018-04-19T03:00:58.944Z,16.38
2018-04-19T03:01:59.011Z,16.31
2018-04-19T03:02:58.931Z,16.41
2018-04-19T03:03:58.982Z,16.30
2018-04-19T03:04:59.018Z,16.35
2018-04-19T03:05:58.981Z,16.33
2018-04-19T03:06:59.030Z,16.30
2018-04-19T03:07:58.984Z,16.35
2018-04-19T03:08:59.005Z,16.23
2018-04-19T03:09:58.957Z,16.17
2018-04-19T03:10:59.850Z,16.17
2018-04-19T03:11:58.980Z,16.20
2018-04-19T03:12:58.989Z,16.20
2018-04-19T03:13:59.001Z,16.20
2018-04-19T03:14:58.983Z,16.21
2018-04-19T03:15:59.065Z,16.21
2018-04-19T03:16:58.997Z,16.23
2018-04-19T03:17:59.020Z,16.23
2018-04-19T03:18:59.048Z,16.20
2018-04-19T03:19:59.020Z,16.20
2018-04-19T03:20:59.050Z,16.14
2018-04-19T03:21:59.058Z,16.24
2018-04-19T03:22:59.039Z,16.25
2018-04-19T03:23:59.037Z,16.15
2018-04-19T03:24:59.088Z,16.14
2018-04-19T03:25:59.119Z,16.17
2018-04-19T03:26:59.049Z,16.09
2018-04-19T03:27:59.081Z,16.12
2018-04-19T03:28:59.054Z,16.07
2018-04-19T03:29:59.071Z,16.04
2018-04-19T03:30:59.031Z,16.08
2018-04-19T03:31:59.072Z,16.11
2018-04-19T03:32:59.096Z,16.07
2018-04-19T03:33:59.054Z,16.04
2018-04-19T03:34:59.092Z,16.11
2018-04-19T03:35:59.061Z,16.01
2018-04-19T03:36:59.144Z,16.00
2018-04-19T03:37:59.054Z,16.02
2018-04-19T03:38:59.080Z,16.08
2018-04-19T03:39:59.091Z,16.05
2018-04-19T03:40:59.103Z,16.05
2018-04-19T03:41:59.134Z,16.02
2018-04-19T03:42:59.102Z,15.97
2018-04-19T03:43:59.128Z,15.97
2018-04-19T03:44:59.125Z,15.92
2018-04-19T03:45:59.107Z,15.94
2018-04-19T03:46:59.103Z,15.84
2018-04-19T03:47:59.173Z,15.87
2018-04-19T03:48:59.098Z,15.76
2018-04-19T03:49:59.112Z,15.67
2018-04-19T03:50:59.256Z,15.74
2018-04-19T03:51:59.156Z,15.80
2018-04-19T03:52:59.123Z,15.67
2018-04-19T03:53:59.151Z,15.64
2018-04-19T03:54:59.176Z,15.71
2018-04-19T03:55:59.144Z,15.74
2018-04-19T03:56:59.115Z,15.78
2018-04-19T03:57:59.219Z,15.72
2018-04-19T03:58:59.197Z,15.75
2018-04-19T03:59:59.131Z,15.57
2018-04-19T04:00:59.302Z,15.62
2018-04-19T04:01:59.163Z,15.57
2018-04-19T04:02:59.166Z,15.43
2018-04-19T04:03:59.162Z,15.54
2018-04-19T04:04:59.167Z,15.38
2018-04-19T04:05:59.176Z,15.29
2018-04-19T04:06:59.232Z,15.31
2018-04-19T04:07:59.231Z,15.21
2018-04-19T04:08:59.160Z,15.11
2018-04-19T04:09:59.173Z,15.03
2018-04-19T04:10:59.259Z,15.11
2018-04-19T04:11:59.166Z,15.01
2018-04-19T04:12:59.253Z,14.98
2018-04-19T04:13:59.197Z,15.07
2018-04-19T04:14:59.249Z,15.03
2018-04-19T04:15:59.208Z,14.95
2018-04-19T04:16:59.227Z,15.03
2018-04-19T04:17:59.186Z,14.98
2018-04-19T04:18:59.228Z,14.94
2018-04-19T04:19:59.233Z,14.99
2018-04-19T04:20:59.232Z,14.99
2018-04-19T04:21:59.250Z,15.02
2018-04-19T04:22:59.230Z,15.01
2018-04-19T04:23:59.238Z,15.03
2018-04-19T04:24:59.261Z,15.13
2018-04-19T04:25:59.272Z,15.17
2018-04-19T04:26:59.251Z,15.14
2018-04-19T04:27:59.213Z,15.19
2018-04-19T04:28:59.246Z,15.19
2018-04-19T04:29:59.273Z,15.28
2018-04-19T04:30:59.234Z,15.19
2018-04-19T04:31:59.325Z,15.32
2018-04-19T04:32:59.242Z,15.25
2018-04-19T04:33:59.274Z,15.28
2018-04-19T04:34:59.304Z,15.32
2018-04-19T04:35:59.295Z,15.27
2018-04-19T04:36:59.279Z,15.21
2018-04-19T04:37:59.276Z,15.29
2018-04-19T04:38:59.295Z,15.29
2018-04-19T04:39:59.314Z,15.36
2018-04-19T04:40:59.276Z,15.36
2018-04-19T04:41:59.282Z,15.43
2018-04-19T04:42:59.319Z,15.32
2018-04-19T04:43:59.279Z,15.47
2018-04-19T04:44:59.270Z,15.38
2018-04-19T04:45:59.311Z,15.34
2018-04-19T04:46:59.307Z,15.29
2018-04-19T04:47:59.328Z,15.36
2018-04-19T04:48:59.267Z,15.34
2018-04-19T04:49:59.877Z,15.41
2018-04-19T04:50:59.380Z,15.38
2018-04-19T04:51:59.335Z,15.43
2018-04-19T04:52:59.298Z,15.43
2018-04-19T04:53:59.343Z,15.47
2018-04-19T04:54:59.291Z,15.41
2018-04-19T04:55:59.323Z,15.50
2018-04-19T04:56:59.364Z,15.53
2018-04-19T04:57:59.435Z,15.54
2018-04-19T04:58:59.336Z,15.51
2018-04-19T04:59:59.320Z,15.59
2018-04-19T05:00:59.334Z,15.49
2018-04-19T05:01:59.395Z,15.46
2018-04-19T05:02:59.395Z,15.49
2018-04-19T05:03:59.372Z,15.50
2018-04-19T05:04:59.333Z,15.47
2018-04-19T05:05:59.377Z,15.54
2018-04-19T05:06:59.373Z,15.62
2018-04-19T05:07:59.369Z,15.60
2018-04-19T05:08:59.350Z,15.67
2018-04-19T05:09:59.377Z,15.59
2018-04-19T05:10:59.388Z,15.68
2018-04-19T05:11:59.407Z,15.59
2018-04-19T05:12:59.360Z,15.67
2018-04-19T05:13:59.423Z,15.74
2018-04-19T05:14:59.424Z,15.69
2018-04-19T05:15:59.389Z,15.78
2018-04-19T05:16:59.362Z,15.82
2018-04-19T05:17:59.398Z,15.82
2018-04-19T05:18:59.438Z,15.82
2018-04-19T05:19:59.477Z,15.78
2018-04-19T05:20:59.390Z,15.76
2018-04-19T05:21:59.385Z,15.80
2018-04-19T05:22:59.369Z,15.84
2018-04-19T05:23:59.465Z,15.83
2018-04-19T05:24:59.447Z,15.84
2018-04-19T05:25:59.473Z,15.89
2018-04-19T05:26:59.430Z,15.93
2018-04-19T05:27:59.470Z,16.24
2018-04-19T05:29:00.391Z,16.28
2018-04-19T05:29:59.444Z,16.25
2018-04-19T05:30:59.422Z,16.49
2018-04-19T05:31:59.423Z,16.70
2018-04-19T05:32:59.514Z,16.64
2018-04-19T05:33:59.448Z,16.71
2018-04-19T05:34:59.461Z,17.14
2018-04-19T05:35:59.899Z,17.31
2018-04-19T05:36:59.497Z,17.41
2018-04-19T05:37:59.514Z,17.48
2018-04-19T05:38:59.466Z,17.63
2018-04-19T05:39:59.460Z,17.62
2018-04-19T05:40:59.487Z,18.10
2018-04-19T05:41:59.454Z,18.47
2018-04-19T05:42:59.489Z,19.61
2018-04-19T05:44:00.404Z,19.88
2018-04-19T05:44:59.499Z,19.55
2018-04-19T05:45:59.520Z,20.48
2018-04-19T05:46:59.523Z,20.69
2018-04-19T05:47:59.497Z,21.01
2018-04-19T05:48:59.575Z,20.55
2018-04-19T05:49:59.474Z,20.72
2018-04-19T05:50:59.520Z,21.01
2018-04-19T05:51:59.482Z,21.19
2018-04-19T05:52:59.512Z,21.10
2018-04-19T05:53:59.511Z,20.89
2018-04-19T05:54:59.493Z,21.01
2018-04-19T05:55:59.588Z,21.16
2018-04-19T05:56:59.655Z,21.92
2018-04-19T05:57:59.501Z,22.27
2018-04-19T05:58:59.540Z,22.62
2018-04-19T05:59:59.558Z,23.16
2018-04-19T06:00:59.666Z,23.83
2018-04-19T06:01:59.564Z,23.73
2018-04-19T06:02:59.584Z,23.66
2018-04-19T06:03:59.632Z,23.38
2018-04-19T06:04:59.555Z,24.10
2018-04-19T06:05:59.605Z,23.70
2018-04-19T06:06:59.602Z,23.46
2018-04-19T06:07:59.555Z,23.63
2018-04-19T06:08:59.618Z,23.36
2018-04-19T06:09:59.600Z,24.09
2018-04-19T06:11:00.021Z,24.27
2018-04-19T06:11:59.617Z,24.58
2018-04-19T06:12:59.602Z,24.06
2018-04-19T06:13:59.664Z,24.34
2018-04-19T06:14:59.664Z,25.00
2018-04-19T06:15:59.601Z,24.85
2018-04-19T06:16:59.663Z,23.20
2018-04-19T06:18:00.768Z,23.38
2018-04-19T06:18:59.697Z,23.15
2018-04-19T06:19:59.731Z,23.09
2018-04-19T06:20:59.665Z,23.05
2018-04-19T06:21:59.708Z,22.64
2018-04-19T06:23:10.492Z,23.22
2018-04-19T06:23:59.935Z,24.20
2018-04-19T06:24:59.893Z,24.76
2018-04-19T06:25:59.714Z,25.54
2018-04-19T06:26:59.857Z,25.88
2018-04-19T06:27:59.771Z,26.06
2018-04-19T06:28:59.767Z,26.72
2018-04-19T06:30:00.419Z,26.85
2018-04-19T06:30:59.798Z,26.52
2018-04-19T06:31:59.808Z,26.51
2018-04-19T06:33:06.688Z,26.52
2018-04-19T06:33:59.982Z,26.66
2018-04-19T06:35:00.418Z,25.17
2018-04-19T06:35:59.846Z,25.35
2018-04-19T06:36:59.835Z,25.28
2018-04-19T06:37:59.783Z,25.82
2018-04-19T06:38:59.898Z,25.77
2018-04-19T06:39:59.837Z,25.14
2018-04-19T06:40:59.921Z,26.55
2018-04-19T06:41:59.868Z,27.63
2018-04-19T06:42:59.882Z,27.55
2018-04-19T06:44:00.032Z,27.10
2018-04-19T06:44:59.817Z,27.10
2018-04-19T06:45:59.913Z,27.51
2018-04-19T06:46:59.890Z,27.10
2018-04-19T06:47:59.993Z,26.65
2018-04-19T06:48:59.921Z,27.32
2018-04-19T06:49:59.917Z,27.85
2018-04-19T06:50:59.948Z,27.69
2018-04-19T06:51:59.957Z,27.59
2018-04-19T06:52:59.996Z,27.41
2018-04-19T06:53:59.955Z,27.94
2018-04-19T06:55:15.140Z,27.99
2018-04-19T06:55:59.943Z,27.43
2018-04-19T06:56:59.979Z,27.41
2018-04-19T06:58:03.137Z,27.82
2018-04-19T06:59:00.055Z,28.04
2018-04-19T07:00:00.100Z,28.22
2018-04-19T07:01:00.082Z,28.24
2018-04-19T07:02:00.333Z,28.19
2018-04-19T07:03:00.207Z,28.46
2018-04-19T07:04:00.111Z,28.36
2018-04-19T07:05:00.111Z,28.27
2018-04-19T07:06:00.117Z,26.88
2018-04-19T07:07:01.065Z,27.12
2018-04-19T07:08:00.940Z,27.24
2018-04-19T07:09:00.960Z,26.85
2018-04-19T07:10:00.295Z,27.18
2018-04-19T07:11:00.161Z,27.65
2018-04-19T07:12:00.182Z,27.13
2018-04-19T07:13:00.356Z,26.52
2018-04-19T07:14:00.509Z,27.09
2018-04-19T07:15:00.270Z,27.87
2018-04-19T07:16:00.260Z,27.92
2018-04-19T07:17:00.321Z,27.25
2018-04-19T07:18:00.388Z,27.47
2018-04-19T07:19:00.391Z,28.19
2018-04-19T07:20:00.410Z,28.59
2018-04-19T07:21:00.958Z,27.25
2018-04-19T07:22:00.452Z,27.24
2018-04-19T07:23:01.201Z,27.36
2018-04-19T07:24:03.354Z,27.70
2018-04-19T07:25:07.552Z,27.77
2018-04-19T07:28:02.798Z,27.46
2018-04-19T07:28:32.415Z,28.46
2018-04-19T07:29:32.414Z,28.96
2018-04-19T07:30:32.435Z,28.59
2018-04-19T07:31:32.501Z,28.70
2018-04-19T07:32:33.009Z,28.95
2018-04-19T07:33:32.433Z,29.04
2018-04-19T07:34:32.442Z,28.88
2018-04-19T07:35:32.451Z,29.61
2018-04-19T07:36:32.682Z,29.24
2018-04-19T07:37:32.642Z,30.10
2018-04-19T07:38:32.533Z,30.26
2018-04-19T07:39:32.525Z,30.46
2018-04-19T07:40:32.516Z,29.71
2018-04-19T07:41:32.561Z,29.78
2018-04-19T07:42:33.422Z,28.73
2018-04-19T07:43:32.587Z,27.93
2018-04-19T07:44:32.597Z,28.56
2018-04-19T07:45:32.611Z,28.76
2018-04-19T07:46:33.408Z,28.56
2018-04-19T07:47:32.639Z,28.90
2018-04-19T07:48:33.417Z,28.59
2018-04-19T07:49:32.765Z,28.81
2018-04-19T07:50:32.685Z,28.68
2018-04-19T07:51:32.763Z,29.31
2018-04-19T07:52:32.752Z,29.60
2018-04-19T07:53:32.760Z,29.21
2018-04-19T07:54:32.944Z,28.73
2018-04-19T07:55:33.446Z,28.06
2018-04-19T07:56:32.778Z,27.32
2018-04-19T07:57:33.823Z,27.90
2018-04-19T07:58:33.091Z,28.06
2018-04-19T07:59:33.139Z,28.27
2018-04-19T08:00:33.130Z,28.89
2018-04-19T08:01:32.851Z,28.90
2018-04-19T08:02:33.090Z,28.73
2018-04-19T08:03:32.952Z,28.74
2018-04-19T08:04:34.083Z,28.96
2018-04-19T08:05:33.021Z,29.71
2018-04-19T08:06:33.601Z,30.35
2018-04-19T08:07:33.054Z,30.80
2018-04-19T08:08:32.969Z,30.98
2018-04-19T08:09:32.990Z,31.72
2018-04-19T08:10:33.036Z,31.46
2018-04-19T08:11:33.057Z,30.82
2018-04-19T08:12:33.048Z,30.80
2018-04-19T08:13:33.163Z,30.38
2018-04-19T08:14:34.221Z,30.08
2018-04-19T08:15:33.153Z,30.46
2018-04-19T08:16:33.166Z,30.53
2018-04-19T08:17:33.358Z,30.65
2018-04-19T08:18:33.201Z,30.29
2018-04-19T08:19:33.245Z,30.80
2018-04-19T08:20:33.200Z,29.27
2018-04-19T08:21:33.172Z,29.52
2018-04-19T08:22:33.199Z,30.02
2018-04-19T08:23:33.230Z,29.34
2018-04-19T08:24:33.314Z,29.27
2018-04-19T08:25:34.728Z,29.55
2018-04-19T08:26:33.326Z,29.49
2018-04-19T08:27:33.317Z,30.20
2018-04-19T08:28:33.315Z,30.91
2018-04-19T08:29:33.317Z,31.10
2018-04-19T08:30:33.510Z,30.47
2018-04-19T08:31:33.390Z,31.01
2018-04-19T08:32:33.457Z,30.84
2018-04-19T08:33:33.421Z,31.04
2018-04-19T08:34:33.411Z,31.32
2018-04-19T08:35:33.444Z,30.80
2018-04-19T08:36:33.467Z,30.60
2018-04-19T08:37:33.533Z,29.70
2018-04-19T08:38:33.512Z,29.61
2018-04-19T08:39:33.496Z,29.67
2018-04-19T08:40:33.539Z,29.28
2018-04-19T08:41:33.581Z,30.58
2018-04-19T08:42:33.619Z,31.31
2018-04-19T08:43:33.610Z,32.21
2018-04-19T08:44:33.700Z,30.99
2018-04-19T08:45:33.663Z,30.24
2018-04-19T08:46:33.657Z,29.51
2018-04-19T08:47:33.660Z,30.37
2018-04-19T08:48:33.702Z,30.29
2018-04-19T08:49:33.707Z,30.82
2018-04-19T08:50:33.759Z,31.04
2018-04-19T08:51:33.796Z,30.95
2018-04-19T08:52:33.868Z,31.19
2018-04-19T08:53:34.452Z,31.65
2018-04-19T08:54:33.854Z,32.10
2018-04-19T08:55:34.108Z,32.81
2018-04-19T08:56:33.936Z,33.04
2018-04-19T08:57:33.934Z,32.66
2018-04-19T08:58:34.181Z,32.32
2018-04-19T08:59:33.992Z,32.45
2018-04-19T09:00:33.956Z,33.01
2018-04-19T09:01:33.951Z,32.88
2018-04-19T09:02:34.009Z,32.63
2018-04-19T09:03:33.982Z,32.55
2018-04-19T09:04:33.999Z,32.19
2018-04-19T09:05:34.016Z,32.94
2018-04-19T09:06:34.061Z,33.26
2018-04-19T09:07:34.085Z,32.75
2018-04-19T09:08:34.095Z,33.50
2018-04-19T09:09:34.206Z,33.42
2018-04-19T09:10:34.138Z,32.82
2018-04-19T09:11:34.176Z,32.07
2018-04-19T09:12:34.177Z,32.29
2018-04-19T09:13:34.232Z,31.48
2018-04-19T09:14:34.255Z,30.80
2018-04-19T09:15:34.241Z,31.38
2018-04-19T09:16:34.256Z,31.23
2018-04-19T09:17:34.279Z,30.92
2018-04-19T09:18:34.313Z,31.96
2018-04-19T09:19:34.368Z,32.22
2018-04-19T09:20:34.341Z,32.00
2018-04-19T09:21:34.375Z,32.11
2018-04-19T09:22:34.423Z,32.77
2018-04-19T09:23:34.429Z,32.82
2018-04-19T09:24:34.972Z,33.11
2018-04-19T09:25:34.457Z,32.21
2018-04-19T09:26:34.471Z,32.10
2018-04-19T09:27:34.529Z,32.33
2018-04-19T09:28:34.559Z,31.92
2018-04-19T09:29:34.555Z,32.00
2018-04-19T09:30:34.670Z,32.33
2018-04-19T09:31:34.728Z,32.32
2018-04-19T09:32:34.662Z,32.44
2018-04-19T09:33:34.630Z,32.57
2018-04-19T09:34:34.788Z,32.97
2018-04-19T09:35:34.683Z,33.81
2018-04-19T09:36:34.811Z,34.32
2018-04-19T09:37:34.805Z,34.52
2018-04-19T09:38:34.757Z,34.17
2018-04-19T09:39:34.774Z,33.07
2018-04-19T09:40:34.797Z,32.85
2018-04-19T09:41:35.016Z,33.45
2018-04-19T09:42:34.849Z,33.71
2018-04-19T09:43:34.922Z,33.88
2018-04-19T09:44:35.001Z,33.91
2018-04-19T09:45:34.973Z,33.78
2018-04-19T09:46:35.105Z,33.22
2018-04-19T09:47:35.022Z,32.70
2018-04-19T09:48:35.088Z,32.29
2018-04-19T09:49:37.557Z,33.00
2018-04-19T09:50:35.047Z,33.53
2018-04-19T09:51:35.068Z,32.87
2018-04-19T09:52:35.201Z,32.26
2018-04-19T09:53:35.172Z,33.00
2018-04-19T09:54:35.188Z,33.66
2018-04-19T09:55:35.179Z,33.98
2018-04-19T09:56:35.187Z,34.37
2018-04-19T09:57:35.233Z,33.16
2018-04-19T09:58:35.265Z,33.47
2018-04-19T09:59:35.257Z,34.19
2018-04-19T10:00:35.276Z,34.50
2018-04-19T10:01:35.346Z,34.12
2018-04-19T10:02:35.343Z,33.69
2018-04-19T10:03:35.375Z,32.08
2018-04-19T10:04:35.462Z,32.85
2018-04-19T10:05:35.411Z,33.29
2018-04-19T10:06:35.988Z,32.96
2018-04-19T10:07:35.463Z,33.00
2018-04-19T10:08:35.514Z,33.51
2018-04-19T10:09:35.512Z,33.23
2018-04-19T10:10:36.994Z,32.88
2018-04-19T10:11:35.636Z,32.92
2018-04-19T10:12:35.804Z,33.15
2018-04-19T10:13:35.603Z,32.43
2018-04-19T10:14:35.655Z,32.47
2018-04-19T10:15:35.741Z,33.09
2018-04-19T10:16:35.845Z,33.23
2018-04-19T10:17:35.834Z,33.23
2018-04-19T10:18:35.747Z,33.11
2018-04-19T10:19:35.844Z,33.35
2018-04-19T10:20:35.782Z,33.59
2018-04-19T10:21:35.867Z,33.93
2018-04-19T10:22:35.882Z,34.34
2018-04-19T10:23:36.502Z,33.45
2018-04-19T10:24:36.003Z,32.57
2018-04-19T10:25:35.943Z,32.32
2018-04-19T10:26:35.946Z,31.46
2018-04-19T10:27:36.012Z,32.00
2018-04-19T10:28:36.012Z,32.13
2018-04-19T10:29:36.078Z,32.06
2018-04-19T10:30:36.050Z,32.92
2018-04-19T10:31:36.099Z,32.23
2018-04-19T10:32:36.094Z,32.48
2018-04-19T10:33:36.154Z,33.04
2018-04-19T10:34:36.292Z,32.84
2018-04-19T10:35:36.176Z,32.84
2018-04-19T10:36:36.278Z,33.47
2018-04-19T10:37:37.006Z,33.79
2018-04-19T10:38:36.408Z,34.16
2018-04-19T10:39:36.340Z,32.57
2018-04-19T10:40:36.413Z,32.67
2018-04-19T10:41:36.456Z,32.51
2018-04-19T10:42:36.473Z,33.04
2018-04-19T10:43:36.444Z,32.99
2018-04-19T10:44:36.487Z,32.82
2018-04-19T10:45:36.504Z,32.35
2018-04-19T10:46:36.575Z,33.49
2018-04-19T10:47:36.634Z,33.78
2018-04-19T10:48:36.546Z,32.59
2018-04-19T10:49:36.577Z,33.14
2018-04-19T10:50:36.726Z,32.74
2018-04-19T10:51:37.523Z,32.29
2018-04-19T10:52:36.726Z,32.51
2018-04-19T10:53:36.818Z,32.26
2018-04-19T10:54:36.791Z,32.99
2018-04-19T10:55:36.933Z,33.68
2018-04-19T10:56:36.884Z,33.71
2018-04-19T10:57:36.771Z,33.84
2018-04-19T10:58:36.868Z,34.10
2018-04-19T10:59:36.921Z,34.58
2018-04-19T11:00:37.037Z,33.26
2018-04-19T11:01:36.942Z,33.26
2018-04-19T11:02:37.037Z,33.11
2018-04-19T11:03:36.975Z,32.07
2018-04-19T11:04:37.055Z,31.69
2018-04-19T11:05:37.098Z,31.62
2018-04-19T11:06:37.031Z,31.76
2018-04-19T11:07:37.045Z,31.78
2018-04-19T11:08:37.197Z,31.68
2018-04-19T11:09:37.072Z,31.43
2018-04-19T11:10:37.130Z,31.35
2018-04-19T11:11:37.107Z,30.83
2018-04-19T11:12:37.175Z,30.95
2018-04-19T11:13:37.121Z,31.14
2018-04-19T11:14:37.134Z,30.24
2018-04-19T11:15:37.225Z,30.27
2018-04-19T11:16:37.156Z,29.76
2018-04-19T11:17:38.032Z,29.87
2018-04-19T11:18:37.260Z,30.05
2018-04-19T11:19:37.385Z,30.08
2018-04-19T11:20:37.330Z,30.07
2018-04-19T11:21:37.453Z,30.01
2018-04-19T11:22:37.383Z,29.82
2018-04-19T11:23:37.331Z,30.23
2018-04-19T11:24:37.391Z,30.47
2018-04-19T11:25:37.359Z,30.53
2018-04-19T11:26:37.505Z,30.61
2018-04-19T11:27:37.592Z,30.83
2018-04-19T11:28:37.365Z,30.80
2018-04-19T11:29:38.041Z,30.54
2018-04-19T11:30:37.492Z,30.62
2018-04-19T11:31:37.400Z,30.27
2018-04-19T11:32:37.415Z,29.87
2018-04-19T11:33:37.463Z,29.49
2018-04-19T11:34:37.455Z,29.60
2018-04-19T11:35:38.042Z,29.71
2018-04-19T11:36:37.510Z,29.89
2018-04-19T11:37:37.527Z,29.60
2018-04-19T11:38:37.539Z,29.31
2018-04-19T11:39:37.548Z,29.30
2018-04-19T11:40:37.607Z,29.51
2018-04-19T11:41:37.562Z,29.63
2018-04-19T11:42:37.604Z,29.65
2018-04-19T11:43:37.615Z,29.53
2018-04-19T11:44:38.745Z,29.67
2018-04-19T11:45:40.139Z,29.39
2018-04-19T11:46:37.621Z,29.41
2018-04-19T11:47:37.756Z,29.41
2018-04-19T11:48:37.668Z,29.15
2018-04-19T11:49:37.868Z,29.14
2018-04-19T11:50:38.549Z,28.89
2018-04-19T11:51:37.708Z,28.92
2018-04-19T11:52:37.834Z,29.15
2018-04-19T11:53:37.943Z,29.18
2018-04-19T11:54:37.815Z,29.49
2018-04-19T11:55:37.787Z,29.43
2018-04-19T11:56:38.152Z,29.46
2018-04-19T11:57:38.254Z,29.58
2018-04-19T11:58:37.915Z,29.63
2018-04-19T11:59:39.565Z,29.61
2018-04-19T12:00:38.238Z,29.61
2018-04-19T12:01:37.937Z,29.70
2018-04-19T12:02:39.326Z,29.97
2018-04-19T12:03:38.428Z,29.52
2018-04-19T12:04:38.123Z,29.61
2018-04-19T12:05:37.847Z,29.42
2018-04-19T12:06:38.035Z,29.58
2018-04-19T12:07:38.698Z,29.52
2018-04-19T12:08:37.983Z,29.27
2018-04-19T12:09:39.438Z,29.11
2018-04-19T12:10:38.375Z,29.26
2018-04-19T12:11:39.625Z,29.63
2018-04-19T12:12:41.239Z,29.42
2018-04-19T12:13:38.029Z,29.43
2018-04-19T12:14:39.841Z,29.33
2018-04-19T12:15:39.387Z,29.12
2018-04-19T12:16:39.698Z,29.18
2018-04-19T12:17:38.402Z,29.34
2018-04-19T12:18:40.221Z,29.26
2018-04-19T12:19:41.407Z,29.27
2018-04-19T12:20:41.271Z,29.19
2018-04-19T12:21:38.130Z,29.36
2018-04-19T12:22:38.152Z,29.16
2018-04-19T12:23:53.833Z,28.93
2018-04-19T12:24:38.246Z,28.93
2018-04-19T12:25:38.997Z,28.89
2018-04-19T12:26:38.265Z,28.93
2018-04-19T12:27:38.600Z,29.24
2018-04-19T12:28:39.513Z,29.41
2018-04-19T12:29:38.111Z,29.27
2018-04-19T12:30:38.499Z,29.36
2018-04-19T12:31:38.191Z,29.14
2018-04-19T12:32:38.221Z,29.21
2018-04-19T12:33:38.262Z,29.08
2018-04-19T12:34:38.158Z,28.62
2018-04-19T12:35:38.411Z,28.70
2018-04-19T12:36:38.183Z,28.83
2018-04-19T12:37:38.251Z,28.92
2018-04-19T12:38:38.243Z,28.96
2018-04-19T12:39:38.248Z,29.04
2018-04-19T12:40:38.234Z,29.11
2018-04-19T12:41:38.339Z,29.23
2018-04-19T12:42:38.302Z,29.16
2018-04-19T12:43:38.370Z,29.02
2018-04-19T12:44:38.287Z,28.71
2018-04-19T12:45:39.091Z,28.73
2018-04-19T12:46:38.311Z,28.92
2018-04-19T12:47:38.320Z,29.08
2018-04-19T12:48:39.285Z,28.92
2018-04-19T12:49:38.407Z,28.96
2018-04-19T12:50:38.341Z,28.74
2018-04-19T12:51:39.094Z,28.68
2018-04-19T12:52:38.398Z,28.67
2018-04-19T12:53:38.371Z,28.62
2018-04-19T12:54:38.368Z,28.73